Time;durP1;ratioP1;P1;durP2;ratioP2;P2;SDS_P1;SDS_P2;PMS_P1;PMS_P2;Temp;Humidity;BMP_temperature;BMP_pressure;BME280_temperature;BME280_humidity;BME280_pressure;Samples;Min_cycle;Max_cycle;Signal;HPM_P1;HPM_P2
2023/01/03 00:04:27;;;;;;;4.50;2.00;;;9.70;99.90;;;;;;10471944;28;20025;-63
2023/01/03 00:09:27;;;;;;;3.72;1.98;;;9.70;99.90;;;;;;10466324;28;20012;-65
2023/01/03 00:14:32;;;;;;;4.68;2.17;;;9.70;99.90;;;;;;10457370;28;20028;-66
2023/01/03 00:19:40;;;;;;;4.35;2.17;;;9.70;99.90;;;;;;10469642;28;20385;-62
2023/01/03 00:24:42;;;;;;;3.53;2.15;;;9.60;99.90;;;;;;10462526;28;20047;-64
2023/01/03 00:29:43;;;;;;;3.58;2.45;;;9.60;99.90;;;;;;10471860;28;20021;-65
2023/01/03 00:34:45;;;;;;;3.97;2.38;;;9.60;99.90;;;;;;10466088;28;20267;-68
2023/01/03 00:39:45;;;;;;;3.58;2.50;;;9.60;99.90;;;;;;10468156;28;20021;-66
2023/01/03 00:44:46;;;;;;;6.15;2.92;;;9.60;99.90;;;;;;10464392;28;20381;-66
2023/01/03 00:49:47;;;;;;;5.68;2.63;;;9.60;99.90;;;;;;10485254;28;20465;-66
2023/01/03 00:54:47;;;;;;;3.60;2.40;;;9.60;99.90;;;;;;10474997;28;20163;-66
2023/01/03 00:59:48;;;;;;;5.00;3.05;;;9.50;99.90;;;;;;10467199;28;20031;-63
2023/01/03 01:04:48;;;;;;;3.40;2.50;;;9.50;99.90;;;;;;10465320;28;20499;-66
2023/01/03 01:09:50;;;;;;;5.55;2.45;;;9.50;99.90;;;;;;10465408;28;20427;-65
2023/01/03 01:14:50;;;;;;;5.30;2.50;;;9.50;99.90;;;;;;10461447;28;20504;-66
2023/01/03 01:19:51;;;;;;;6.25;2.70;;;9.50;99.90;;;;;;10467273;28;20008;-66
2023/01/03 01:24:52;;;;;;;4.25;2.65;;;9.50;99.90;;;;;;10485108;28;20028;-66
2023/01/03 01:29:52;;;;;;;5.25;2.75;;;9.60;99.90;;;;;;10476303;28;20021;-67
2023/01/03 01:34:53;;;;;;;3.72;2.22;;;9.40;99.90;;;;;;10473522;28;20048;-64
2023/01/03 01:39:53;;;;;;;5.68;2.75;;;9.40;99.90;;;;;;10470432;28;20391;-64
2023/01/03 01:44:59;;;;;;;4.50;2.78;;;9.40;99.90;;;;;;10459844;28;20036;-65
2023/01/03 01:50:04;;;;;;;5.72;3.08;;;9.40;99.90;;;;;;10478302;28;20155;-66
2023/01/03 01:55:11;;;;;;;7.13;4.18;;;9.40;99.90;;;;;;10458142;28;20070;-66
2023/01/03 02:00:13;;;;;;;6.03;3.28;;;9.30;99.90;;;;;;10457460;28;20329;-66
2023/01/03 02:05:17;;;;;;;6.03;3.03;;;9.30;99.90;;;;;;10473256;28;20036;-66
2023/01/03 02:10:30;;;;;;;6.30;3.03;;;9.30;99.90;;;;;;10472044;28;20487;-66
2023/01/03 02:15:39;;;;;;;7.10;3.38;;;9.30;99.90;;;;;;10461617;28;20161;-66
2023/01/03 02:20:57;;;;;;;6.05;2.97;;;9.30;99.90;;;;;;10469856;28;20060;-66
2023/01/03 02:26:09;;;;;;;5.07;3.13;;;9.30;99.90;;;;;;10465472;28;20024;-64
2023/01/03 02:31:24;;;;;;;7.70;3.55;;;9.30;99.90;;;;;;10465825;28;20020;-64
2023/01/03 02:36:36;;;;;;;6.75;3.50;;;9.20;99.90;;;;;;10479418;28;20074;-64
2023/01/03 02:41:51;;;;;;;5.93;3.42;;;9.30;99.90;;;;;;10476294;28;20013;-66
2023/01/03 02:47:05;;;;;;;7.57;3.28;;;9.20;99.90;;;;;;10465779;28;20100;-66
2023/01/03 02:52:12;;;;;;;6.97;3.38;;;9.20;99.90;;;;;;10462835;28;20021;-64
2023/01/03 02:57:22;;;;;;;5.80;3.47;;;9.20;99.90;;;;;;10464895;28;20036;-63
2023/01/03 03:02:28;;;;;;;6.10;3.33;;;9.20;99.90;;;;;;10474390;28;20024;-65
2023/01/03 03:07:33;;;;;;;6.65;3.80;;;9.20;99.90;;;;;;10476363;28;20082;-65
2023/01/03 03:18:03;;;;;;;7.00;3.42;;;9.10;99.90;;;;;;10458007;28;20040;-66
2023/01/03 03:28:35;;;;;;;9.68;4.72;;;9.10;99.90;;;;;;10469716;28;20021;-66
2023/01/03 03:33:43;;;;;;;7.65;4.15;;;9.10;99.90;;;;;;10455732;28;20029;-66
2023/01/03 03:38:45;;;;;;;9.38;4.15;;;9.10;99.90;;;;;;10463583;28;20016;-66
2023/01/03 03:54:39;;;;;;;8.63;4.13;;;9.00;99.90;;;;;;10459440;28;20230;-66
2023/01/03 03:59:43;;;;;;;6.75;3.63;;;9.00;99.90;;;;;;10456800;28;20323;-66
2023/01/03 04:04:48;;;;;;;8.60;4.30;;;9.00;99.90;;;;;;10457952;28;20025;-66
2023/01/03 04:09:49;;;;;;;7.70;3.70;;;9.00;99.90;;;;;;10459229;28;20104;-67
2023/01/03 04:14:50;;;;;;;7.28;3.78;;;9.00;99.90;;;;;;10464397;28;20101;-65
2023/01/03 04:19:50;;;;;;;6.82;4.07;;;8.90;99.90;;;;;;10477358;28;20121;-63
2023/01/03 04:24:51;;;;;;;7.97;4.20;;;8.90;99.90;;;;;;10492258;28;20024;-65
2023/01/03 04:29:51;;;;;;;6.35;3.78;;;9.40;99.90;;;;;;10484995;28;20017;-65
2023/01/03 04:34:52;;;;;;;6.40;3.70;;;8.90;99.90;;;;;;10488820;28;20118;-63
2023/01/03 04:39:53;;;;;;;9.27;4.68;;;8.90;99.90;;;;;;10491851;28;20013;-66
2023/01/03 04:44:53;;;;;;;10.27;5.22;;;8.90;99.90;;;;;;10481714;28;20265;-66
2023/01/03 04:49:54;;;;;;;8.55;4.28;;;8.90;99.90;;;;;;10491335;28;20109;-65
2023/01/03 04:54:54;;;;;;;7.47;4.25;;;8.80;99.90;;;;;;10476940;28;20647;-66
2023/01/03 04:59:55;;;;;;;9.07;4.03;;;8.80;99.90;;;;;;10478322;28;20017;-65
2023/01/03 05:04:56;;;;;;;6.65;3.58;;;8.80;99.90;;;;;;10473114;28;20170;-63
2023/01/03 05:09:56;;;;;;;8.60;4.20;;;8.80;99.90;;;;;;10483780;28;20017;-63
2023/01/03 05:14:57;;;;;;;7.63;3.88;;;8.80;99.90;;;;;;10491325;28;20119;-65
2023/01/03 05:30:36;;;;;;;7.97;4.47;;;8.70;99.90;;;;;;10475397;28;20017;-64
2023/01/03 05:35:37;;;;;;;7.60;4.20;;;8.70;99.90;;;;;;10484181;28;20043;-65
2023/01/03 05:40:37;;;;;;;8.13;4.72;;;8.70;99.90;;;;;;10484422;28;20050;-63
2023/01/03 05:45:38;;;;;;;7.65;4.38;;;8.70;99.90;;;;;;10474884;28;20380;-63
2023/01/03 05:50:39;;;;;;;7.20;4.13;;;8.70;99.90;;;;;;10477649;28;20024;-63
2023/01/03 05:55:39;;;;;;;6.40;4.03;;;8.70;99.90;;;;;;10479256;28;20106;-65
2023/01/03 06:00:40;;;;;;;10.00;4.85;;;8.70;99.90;;;;;;10465147;28;20029;-65
2023/01/03 06:05:40;;;;;;;6.78;3.67;;;8.60;99.90;;;;;;10474070;28;20028;-66
2023/01/03 06:10:41;;;;;;;9.48;4.78;;;8.60;99.90;;;;;;10473158;28;20465;-65
2023/01/03 06:15:41;;;;;;;7.43;4.35;;;8.60;99.90;;;;;;10482936;28;20037;-65
2023/01/03 06:20:42;;;;;;;7.20;4.22;;;8.60;99.90;;;;;;10473719;28;20082;-65
2023/01/03 06:25:43;;;;;;;9.25;4.78;;;8.60;99.90;;;;;;10477004;28;20488;-64
2023/01/03 06:30:43;;;;;;;7.80;4.45;;;8.60;99.90;;;;;;10479679;28;20473;-65
2023/01/03 06:35:44;;;;;;;7.47;4.38;;;8.60;99.90;;;;;;10477112;28;20028;-66
2023/01/03 06:40:48;;;;;;;10.02;4.57;;;8.60;99.90;;;;;;10469881;28;20451;-61
2023/01/03 06:56:28;;;;;;;8.60;4.60;;;8.50;99.90;;;;;;10470445;28;20019;-63
2023/01/03 07:01:29;;;;;;;7.43;4.32;;;8.50;99.90;;;;;;10455589;28;20060;-64
2023/01/03 07:06:29;;;;;;;9.90;5.32;;;8.50;99.90;;;;;;10463059;28;20033;-64
2023/01/03 07:11:30;;;;;;;8.43;4.72;;;8.50;99.90;;;;;;10477082;28;20021;-65
2023/01/03 07:16:43;;;;;;;8.70;4.95;;;8.50;99.90;;;;;;10468723;28;20036;-65
2023/01/03 07:21:45;;;;;;;9.10;5.10;;;8.50;99.90;;;;;;10470099;28;20235;-65
2023/01/03 07:26:45;;;;;;;8.38;4.68;;;8.50;99.90;;;;;;10471946;28;20032;-64
2023/01/03 07:31:46;;;;;;;9.10;4.80;;;8.50;99.90;;;;;;10478008;28;20342;-64
2023/01/03 07:36:46;;;;;;;7.75;4.82;;;8.50;99.90;;;;;;10470598;28;20025;-65
2023/01/03 07:47:11;;;;;;;7.80;5.00;;;8.50;99.90;;;;;;10437529;28;20036;-66
2023/01/03 07:52:11;;;;;;;10.23;4.95;;;8.50;99.90;;;;;;10472474;28;20451;-65
2023/01/03 07:57:13;;;;;;;9.65;5.55;;;8.50;99.90;;;;;;10464217;28;20044;-65
2023/01/03 08:02:14;;;;;;;7.90;4.90;;;8.50;99.90;;;;;;10472120;28;20166;-65
2023/01/03 08:07:14;;;;;;;10.05;5.30;;;8.50;99.90;;;;;;10476160;28;20017;-66
2023/01/03 08:17:34;;;;;;;11.82;6.05;;;8.50;99.90;;;;;;10462940;28;20409;-67
2023/01/03 08:22:37;;;;;;;12.30;6.05;;;8.50;99.90;;;;;;10469564;28;20040;-66
2023/01/03 08:27:37;;;;;;;11.27;6.15;;;8.50;99.90;;;;;;10467848;28;20039;-66
2023/01/03 08:32:38;;;;;;;13.30;6.40;;;8.50;99.90;;;;;;10472547;28;20073;-66
2023/01/03 08:37:38;;;;;;;13.45;6.00;;;8.60;99.90;;;;;;10467296;28;20473;-66
2023/01/03 08:42:39;;;;;;;13.88;6.72;;;8.50;99.90;;;;;;10475382;28;20012;-66
2023/01/03 08:47:41;;;;;;;14.13;7.07;;;8.50;99.90;;;;;;10462511;28;20158;-66
2023/01/03 08:52:42;;;;;;;16.35;6.82;;;8.50;99.90;;;;;;10462285;28;20027;-66
2023/01/03 08:57:42;;;;;;;15.15;7.10;;;8.50;99.90;;;;;;10462583;28;20037;-67
2023/01/03 09:02:43;;;;;;;15.90;7.68;;;8.50;99.90;;;;;;10471137;28;20021;-66
2023/01/03 09:07:43;;;;;;;15.18;8.27;;;8.50;99.90;;;;;;10473220;28;20028;-66
2023/01/03 09:12:44;;;;;;;17.65;8.35;;;8.60;99.90;;;;;;10465079;28;20027;-66
2023/01/03 09:17:46;;;;;;;21.60;9.80;;;8.50;99.90;;;;;;10464073;28;20035;-65
2023/01/03 09:22:47;;;;;;;16.85;8.73;;;8.50;99.90;;;;;;10468749;28;20017;-66
2023/01/03 09:27:47;;;;;;;23.17;8.75;;;8.60;99.90;;;;;;10472476;28;20028;-66
2023/01/03 09:32:49;;;;;;;19.52;9.70;;;8.50;99.90;;;;;;10483034;28;20025;-65
2023/01/03 09:37:50;;;;;;;19.33;8.95;;;8.50;99.90;;;;;;10484088;28;20112;-66
2023/01/03 09:48:17;;;;;;;22.67;9.85;;;8.50;99.90;;;;;;10479428;28;20027;-66
2023/01/03 10:04:32;;;;;;;21.90;9.90;;;8.60;99.90;;;;;;10473420;28;20435;-66
2023/01/03 10:09:55;;;;;;;25.38;11.38;;;8.70;99.90;;;;;;10477783;28;20017;-66
2023/01/03 10:15:20;;;;;;;22.23;10.95;;;8.80;99.90;;;;;;10464695;28;20497;-66
2023/01/03 10:20:43;;;;;;;22.35;10.70;;;8.80;99.90;;;;;;10478870;28;20031;-65
2023/01/03 10:25:45;;;;;;;22.45;9.85;;;8.80;99.90;;;;;;10469808;28;20024;-66
2023/01/03 10:31:13;;;;;;;24.55;11.10;;;8.80;99.90;;;;;;10479777;28;20023;-65
2023/01/03 10:36:15;;;;;;;23.73;10.75;;;8.70;99.90;;;;;;10461168;28;20068;-65
2023/01/03 10:41:18;;;;;;;22.02;10.45;;;8.80;99.90;;;;;;10471384;28;20013;-66
2023/01/03 10:46:20;;;;;;;20.27;9.60;;;8.70;99.90;;;;;;10479165;28;20024;-65
2023/01/03 10:51:48;;;;;;;19.77;9.38;;;8.70;99.90;;;;;;10467006;28;20380;-66
2023/01/03 10:56:50;;;;;;;22.63;10.35;;;8.70;99.90;;;;;;10475487;28;20024;-65
2023/01/03 11:02:13;;;;;;;20.25;10.57;;;9.20;99.90;;;;;;10474247;28;20036;-64
2023/01/03 11:07:15;;;;;;;20.00;9.70;;;8.80;99.90;;;;;;10466230;28;20033;-67
2023/01/03 11:12:28;;;;;;;17.48;9.50;;;8.80;99.90;;;;;;10476559;28;20451;-65
2023/01/03 11:17:29;;;;;;;20.73;9.48;;;8.80;99.90;;;;;;10467993;28;20121;-66
2023/01/03 11:22:46;;;;;;;19.02;9.27;;;8.80;99.90;;;;;;10477912;28;20020;-65
2023/01/03 11:27:57;;;;;;;17.48;8.68;;;8.80;99.90;;;;;;10451083;28;20028;-65
2023/01/03 11:33:11;;;;;;;16.13;8.75;;;8.80;99.90;;;;;;10471027;28;20162;-65
2023/01/03 11:38:25;;;;;;;17.58;8.45;;;8.80;99.90;;;;;;10479043;28;20386;-66
2023/01/03 11:43:28;;;;;;;16.15;7.88;;;8.80;99.90;;;;;;10465036;28;20021;-66
2023/01/03 11:48:56;;;;;;;14.88;7.82;;;8.80;99.90;;;;;;10462581;28;20017;-65
2023/01/03 11:54:04;;;;;;;18.80;9.05;;;8.90;99.90;;;;;;10470335;28;20074;-66
2023/01/03 11:59:26;;;;;;;14.10;7.65;;;8.90;99.90;;;;;;10476612;28;20123;-66
2023/01/03 12:04:44;;;;;;;15.77;7.53;;;8.80;99.90;;;;;;10468935;28;20021;-65
2023/01/03 12:10:08;;;;;;;14.35;7.63;;;8.90;99.90;;;;;;10479788;28;20027;-65
2023/01/03 12:15:21;;;;;;;16.60;7.97;;;8.90;99.90;;;;;;10461920;28;20033;-65
2023/01/03 12:20:30;;;;;;;14.85;7.90;;;8.90;99.90;;;;;;10470947;28;20024;-64
2023/01/03 12:25:33;;;;;;;15.63;7.30;;;8.90;99.90;;;;;;10462922;28;20024;-66
2023/01/03 12:30:57;;;;;;;12.52;7.07;;;8.90;99.90;;;;;;10474483;28;20012;-66
2023/01/03 12:36:04;;;;;;;12.82;6.93;;;8.90;99.90;;;;;;10472157;28;20665;-65
2023/01/03 12:41:29;;;;;;;17.60;7.63;;;8.90;99.90;;;;;;10472492;28;20201;-66
2023/01/03 12:46:39;;;;;;;14.65;7.15;;;8.90;99.90;;;;;;10463535;28;20036;-65
2023/01/03 12:51:39;;;;;;;13.27;6.88;;;8.90;99.90;;;;;;10478603;28;20039;-66
2023/01/03 12:56:46;;;;;;;17.58;7.20;;;8.90;99.90;;;;;;10472685;28;20037;-66
2023/01/03 13:01:57;;;;;;;14.02;6.45;;;8.90;99.90;;;;;;10485111;28;20453;-65
2023/01/03 13:07:16;;;;;;;15.32;7.10;;;8.90;99.90;;;;;;10471413;28;20020;-66
2023/01/03 13:12:21;;;;;;;14.57;6.97;;;9.00;99.90;;;;;;10475312;28;20104;-65
2023/01/03 13:17:26;;;;;;;12.55;6.53;;;9.00;99.90;;;;;;10467720;28;20052;-66
2023/01/03 13:22:47;;;;;;;12.38;6.18;;;9.00;99.90;;;;;;10471222;28;20016;-66
2023/01/03 13:27:50;;;;;;;11.18;6.28;;;9.00;99.90;;;;;;10464273;28;20025;-66
2023/01/03 13:33:02;;;;;;;12.93;6.20;;;9.00;99.90;;;;;;10481092;28;20036;-66
2023/01/03 13:38:28;;;;;;;12.13;6.20;;;8.80;99.90;;;;;;10467920;28;20106;-64
2023/01/03 13:43:34;;;;;;;12.85;6.63;;;9.00;99.90;;;;;;10464048;28;20398;-64
2023/01/03 13:48:39;;;;;;;11.27;6.47;;;9.00;99.90;;;;;;10470669;28;20023;-64
2023/01/03 13:54:12;;;;;;;12.73;6.10;;;9.00;99.90;;;;;;10471368;28;20089;-66
2023/01/03 13:59:13;;;;;;;10.80;5.85;;;9.00;99.90;;;;;;10434482;28;20040;-64
2023/01/03 14:04:28;;;;;;;12.23;6.15;;;9.00;99.90;;;;;;10468514;28;20036;-65
2023/01/03 14:10:02;;;;;;;12.48;6.68;;;9.00;99.90;;;;;;10472934;28;20485;-64
2023/01/03 14:15:13;;;;;;;10.90;5.57;;;9.00;99.90;;;;;;10473199;28;20028;-65
2023/01/03 14:20:20;;;;;;;10.55;5.25;;;9.00;99.90;;;;;;10470116;28;20025;-64
2023/01/03 14:25:35;;;;;;;14.10;6.00;;;9.00;99.90;;;;;;10470450;28;20032;-62
2023/01/03 14:30:36;;;;;;;11.00;5.72;;;9.10;99.90;;;;;;10474528;28;20114;-62
2023/01/03 14:35:39;;;;;;;10.30;5.57;;;9.10;99.90;;;;;;10466485;28;20037;-65
2023/01/03 14:40:45;;;;;;;12.10;6.15;;;9.10;99.90;;;;;;10471352;28;20024;-64
2023/01/03 14:45:53;;;;;;;11.30;5.50;;;9.10;99.90;;;;;;10478092;28;20021;-66
2023/01/03 14:50:54;;;;;;;11.18;5.18;;;9.10;99.90;;;;;;10473290;28;20056;-66
2023/01/03 14:55:56;;;;;;;9.80;5.15;;;9.10;99.90;;;;;;10473468;28;20068;-66
2023/01/03 15:00:58;;;;;;;10.88;5.80;;;9.10;99.90;;;;;;10473218;28;20090;-67
2023/01/03 15:06:00;;;;;;;9.38;5.05;;;9.10;99.90;;;;;;10477864;28;20036;-65
2023/01/03 15:11:07;;;;;;;9.82;4.95;;;9.10;99.90;;;;;;10472643;28;20025;-65
2023/01/03 15:16:21;;;;;;;11.25;5.32;;;9.10;99.90;;;;;;10472242;28;20610;-64
2023/01/03 15:21:22;;;;;;;10.45;5.30;;;9.10;99.90;;;;;;10467034;28;20021;-64
2023/01/03 15:26:38;;;;;;;9.73;5.65;;;9.10;99.90;;;;;;10477399;28;20039;-64
2023/01/03 15:31:52;;;;;;;10.07;4.80;;;9.10;99.90;;;;;;10476506;28;20424;-65
2023/01/03 15:36:56;;;;;;;9.77;5.55;;;9.10;99.90;;;;;;10473681;28;20095;-64
2023/01/03 15:47:25;;;;;;;11.75;5.13;;;9.10;99.90;;;;;;10477875;28;20017;-64
2023/01/03 15:52:26;;;;;;;9.88;5.10;;;9.10;99.90;;;;;;10465644;28;20020;-64
2023/01/03 15:57:29;;;;;;;8.65;4.78;;;9.10;99.90;;;;;;10470614;28;20110;-63
2023/01/03 16:02:30;;;;;;;9.68;5.20;;;9.10;99.90;;;;;;10468003;28;20089;-63
2023/01/03 16:07:31;;;;;;;9.20;4.20;;;9.10;99.90;;;;;;10467039;28;20389;-64
2023/01/03 16:12:34;;;;;;;8.77;4.35;;;9.10;99.90;;;;;;10470732;28;20017;-64
2023/01/03 16:17:35;;;;;;;7.55;4.65;;;9.20;99.90;;;;;;10456851;28;20055;-67
2023/01/03 16:22:44;;;;;;;7.97;4.07;;;9.10;99.90;;;;;;10466534;28;20104;-64
2023/01/03 16:27:44;;;;;;;8.07;3.97;;;9.10;99.90;;;;;;10466554;28;20037;-64
2023/01/03 16:32:45;;;;;;;8.73;4.70;;;9.10;99.90;;;;;;10466482;28;20046;-63
2023/01/03 16:37:46;;;;;;;9.95;4.43;;;9.10;99.90;;;;;;10473858;28;20025;-63
2023/01/03 16:42:47;;;;;;;7.97;4.22;;;9.10;99.90;;;;;;10471513;28;20017;-64
2023/01/03 16:47:48;;;;;;;6.63;3.78;;;9.10;99.90;;;;;;10466002;28;20021;-66
2023/01/03 16:52:54;;;;;;;7.13;3.90;;;9.10;99.90;;;;;;10466256;28;20376;-66
2023/01/03 16:57:56;;;;;;;7.28;4.00;;;9.10;99.90;;;;;;10473426;28;20045;-66
2023/01/03 17:02:59;;;;;;;7.35;3.70;;;9.10;99.90;;;;;;10468507;28;20651;-67
2023/01/03 17:08:04;;;;;;;5.57;3.40;;;9.10;99.90;;;;;;10463406;28;20051;-65
2023/01/03 17:13:05;;;;;;;7.72;3.58;;;9.10;99.90;;;;;;10471553;28;20028;-64
2023/01/03 17:18:16;;;;;;;7.63;3.25;;;9.10;99.90;;;;;;10466879;28;20056;-64
2023/01/03 17:23:17;;;;;;;5.25;3.30;;;9.10;99.90;;;;;;10465405;28;20059;-63
2023/01/03 17:28:18;;;;;;;5.32;3.30;;;9.10;99.90;;;;;;10471517;28;20048;-66
2023/01/03 17:33:19;;;;;;;7.55;3.30;;;9.10;99.90;;;;;;10478379;28;20024;-63
2023/01/03 17:38:20;;;;;;;4.30;2.92;;;9.10;99.90;;;;;;10479030;28;20039;-67
2023/01/03 17:43:22;;;;;;;4.28;3.00;;;9.10;99.90;;;;;;10482755;28;20565;-66
2023/01/03 17:53:43;;;;;;;8.88;3.90;;;9.10;99.90;;;;;;10469699;28;20187;-64
2023/01/03 17:58:48;;;;;;;5.80;3.42;;;9.00;99.90;;;;;;10478387;28;20452;-65
2023/01/03 18:03:49;;;;;;;9.57;4.35;;;9.30;99.90;;;;;;10461621;28;20035;-64
2023/01/03 18:08:51;;;;;;;7.07;3.70;;;9.10;99.90;;;;;;10483825;28;20031;-66
2023/01/03 18:13:53;;;;;;;13.15;3.88;;;9.10;99.90;;;;;;10473382;28;20053;-65
2023/01/03 18:18:54;;;;;;;7.93;3.50;;;9.10;99.90;;;;;;10476517;28;20119;-64
2023/01/03 18:24:27;;;;;;;5.70;3.47;;;9.10;99.90;;;;;;10478788;28;20032;-64
2023/01/03 18:29:27;;;;;;;5.80;3.47;;;9.10;99.90;;;;;;10474756;28;20035;-65
2023/01/03 18:34:28;;;;;;;8.27;3.38;;;9.10;99.90;;;;;;10478507;28;20367;-67
2023/01/03 18:39:29;;;;;;;9.80;3.58;;;9.30;99.90;;;;;;10473981;28;20015;-64
2023/01/03 18:44:29;;;;;;;5.25;3.20;;;9.10;99.90;;;;;;10469739;28;20033;-64
2023/01/03 18:49:30;;;;;;;6.00;3.40;;;9.10;99.90;;;;;;10477505;28;20531;-67
2023/01/03 18:54:38;;;;;;;4.63;3.05;;;9.10;99.90;;;;;;10469741;28;20396;-65
2023/01/03 18:59:38;;;;;;;5.07;3.13;;;9.10;99.90;;;;;;10473079;28;20032;-64
2023/01/03 19:04:39;;;;;;;5.53;3.28;;;9.10;99.90;;;;;;10465773;28;20028;-63
2023/01/03 19:09:40;;;;;;;6.68;3.40;;;9.20;99.90;;;;;;10467523;28;20020;-63
2023/01/03 19:14:40;;;;;;;6.18;3.28;;;9.10;99.90;;;;;;10477460;28;20040;-63
2023/01/03 19:19:41;;;;;;;4.70;3.30;;;9.10;99.90;;;;;;10476729;28;20025;-63
2023/01/03 19:24:42;;;;;;;4.88;2.80;;;9.10;99.90;;;;;;10473139;28;20019;-62
2023/01/03 19:29:43;;;;;;;6.72;3.58;;;9.10;99.90;;;;;;10471975;28;20473;-62
2023/01/03 19:34:44;;;;;;;6.28;3.05;;;9.10;99.90;;;;;;10472168;28;20032;-63
2023/01/03 19:39:44;;;;;;;6.10;3.47;;;9.20;99.90;;;;;;10475773;28;20025;-62
2023/01/03 19:44:47;;;;;;;4.13;2.92;;;9.10;99.90;;;;;;10472796;28;20020;-63
2023/01/03 19:49:47;;;;;;;4.32;2.75;;;9.10;99.90;;;;;;10461542;28;20202;-64
2023/01/03 19:54:48;;;;;;;4.72;2.95;;;9.10;99.90;;;;;;10464858;28;20047;-63
2023/01/03 19:59:53;;;;;;;5.85;3.00;;;9.10;99.90;;;;;;10466985;28;20040;-65
2023/01/03 20:04:54;;;;;;;7.30;3.03;;;9.10;99.90;;;;;;10473037;28;20039;-64
2023/01/03 20:09:54;;;;;;;4.82;3.10;;;9.10;99.90;;;;;;10472636;28;20045;-64
2023/01/03 20:14:55;;;;;;;4.20;2.55;;;9.10;99.90;;;;;;10472874;28;20119;-66
2023/01/03 20:19:58;;;;;;;5.38;3.05;;;9.10;99.90;;;;;;10470280;28;20032;-64
2023/01/03 20:24:59;;;;;;;4.40;2.78;;;9.10;99.90;;;;;;10464732;28;20040;-63
2023/01/03 20:29:59;;;;;;;5.82;2.72;;;9.10;99.90;;;;;;10475321;28;20317;-63
2023/01/03 20:35:00;;;;;;;5.30;2.83;;;9.10;99.90;;;;;;10467299;28;20123;-63
2023/01/03 20:40:01;;;;;;;4.95;2.40;;;9.10;99.90;;;;;;10469136;28;20634;-63
2023/01/03 20:45:01;;;;;;;4.13;2.47;;;9.10;99.90;;;;;;10452505;28;20024;-63
2023/01/03 20:50:06;;;;;;;6.07;2.83;;;9.20;99.90;;;;;;10454308;28;20025;-64
2023/01/03 20:55:08;;;;;;;5.28;2.20;;;9.20;99.90;;;;;;10472692;28;20116;-63
2023/01/03 21:00:24;;;;;;;4.07;2.30;;;9.20;99.90;;;;;;10474025;28;20068;-64
2023/01/03 21:05:25;;;;;;;3.47;2.22;;;9.20;99.90;;;;;;10479795;28;20028;-63
2023/01/03 21:10:29;;;;;;;4.88;2.58;;;9.20;99.90;;;;;;10476390;28;20020;-67
2023/01/03 21:15:30;;;;;;;4.97;2.40;;;9.20;99.90;;;;;;10480006;28;20581;-64
2023/01/03 21:20:31;;;;;;;5.68;2.15;;;9.20;99.90;;;;;;10479766;28;20035;-63
2023/01/03 21:25:35;;;;;;;5.70;2.40;;;8.80;99.90;;;;;;10477099;28;20099;-63
2023/01/03 21:30:37;;;;;;;6.90;2.60;;;9.20;99.90;;;;;;10475279;28;20478;-65
2023/01/03 21:35:39;;;;;;;3.70;2.00;;;9.20;99.90;;;;;;10474155;28;20025;-63
2023/01/03 21:40:40;;;;;;;6.43;2.20;;;9.20;99.90;;;;;;10478040;28;20017;-63
2023/01/03 21:45:44;;;;;;;4.57;2.22;;;9.20;99.90;;;;;;10476251;28;20493;-63
2023/01/03 21:50:48;;;;;;;6.25;2.28;;;10.00;99.90;;;;;;10478371;28;20029;-63
2023/01/03 21:55:49;;;;;;;3.05;2.00;;;9.20;99.90;;;;;;10476887;28;20436;-63
2023/01/03 22:00:50;;;;;;;5.60;2.08;;;9.20;99.90;;;;;;10457039;28;20025;-65
2023/01/03 22:05:50;;;;;;;3.92;1.98;;;9.20;99.90;;;;;;10471275;28;20047;-63
2023/01/03 22:10:51;;;;;;;4.78;2.03;;;9.20;99.90;;;;;;10469125;28;20115;-65
2023/01/03 22:15:51;;;;;;;6.35;2.20;;;9.20;99.90;;;;;;10475764;28;20036;-65
2023/01/03 22:20:52;;;;;;;3.35;2.03;;;9.60;99.90;;;;;;10476765;28;20103;-65
2023/01/03 22:25:53;;;;;;;5.25;1.80;;;9.20;99.90;;;;;;10469527;28;20029;-64
2023/01/03 22:30:53;;;;;;;4.30;1.60;;;9.20;99.90;;;;;;10475074;28;20077;-63
2023/01/03 22:35:54;;;;;;;5.10;2.10;;;9.20;99.90;;;;;;10473635;28;20393;-63
2023/01/03 22:40:54;;;;;;;6.05;1.65;;;9.30;99.90;;;;;;10474542;28;20047;-62
2023/01/03 22:45:55;;;;;;;3.55;1.92;;;9.20;99.90;;;;;;10472082;28;20032;-65
2023/01/03 22:50:56;;;;;;;3.88;1.77;;;9.20;99.90;;;;;;10476342;28;20024;-63
2023/01/03 22:55:56;;;;;;;4.90;1.80;;;9.20;99.90;;;;;;10473447;28;20177;-63
2023/01/03 23:01:08;;;;;;;2.78;1.70;;;9.30;99.90;;;;;;10476200;28;20032;-65
2023/01/03 23:06:11;;;;;;;3.47;1.60;;;9.30;99.90;;;;;;10465822;28;20137;-65
2023/01/03 23:16:33;;;;;;;5.63;1.80;;;9.40;99.90;;;;;;10465163;28;20131;-65
2023/01/03 23:21:34;;;;;;;5.30;1.90;;;9.30;99.90;;;;;;10480114;28;20023;-65
2023/01/03 23:26:35;;;;;;;3.63;1.67;;;9.30;99.90;;;;;;10472360;28;20108;-64
2023/01/03 23:31:37;;;;;;;3.50;2.00;;;9.30;99.90;;;;;;10472345;28;20063;-65
2023/01/03 23:36:37;;;;;;;2.80;1.70;;;9.30;99.90;;;;;;10478379;28;20044;-66
2023/01/03 23:41:38;;;;;;;4.72;1.55;;;9.30;99.90;;;;;;10473486;28;20028;-64
2023/01/03 23:46:39;;;;;;;4.88;1.92;;;9.30;99.90;;;;;;10450967;28;20024;-65
2023/01/03 23:51:39;;;;;;;3.65;1.48;;;9.30;99.90;;;;;;10461323;28;20031;-65
2023/01/03 23:56:40;;;;;;;3.20;1.70;;;9.30;99.90;;;;;;10461296;28;20033;-65
